sensor_id;sensor_type;location;lat;lon;timestamp;P1;durP1;ratioP1;P2;durP2;ratioP2
24357;SDS011;13668;52.154;5.580;2023-04-28T00:00:45;1.95;;;1.60;;
24357;SDS011;13668;52.154;5.580;2023-04-28T00:03:11;2.63;;;2.00;;
24357;SDS011;13668;52.154;5.580;2023-04-28T00:05:38;6.97;;;2.13;;
24357;SDS011;13668;52.154;5.580;2023-04-28T00:08:03;2.42;;;1.70;;
24357;SDS011;13668;52.154;5.580;2023-04-28T00:10:30;2.50;;;2.10;;
24357;SDS011;13668;52.154;5.580;2023-04-28T00:12:55;2.80;;;1.83;;
24357;SDS011;13668;52.154;5.580;2023-04-28T00:15:21;2.53;;;1.67;;
24357;SDS011;13668;52.154;5.580;2023-04-28T00:17:47;3.60;;;2.00;;
24357;SDS011;13668;52.154;5.580;2023-04-28T00:20:14;2.92;;;2.00;;
24357;SDS011;13668;52.154;5.580;2023-04-28T00:22:40;3.10;;;2.13;;
24357;SDS011;13668;52.154;5.580;2023-04-28T00:25:06;2.72;;;1.73;;
24357;SDS011;13668;52.154;5.580;2023-04-28T00:27:32;3.60;;;1.80;;
24357;SDS011;13668;52.154;5.580;2023-04-28T00:29:58;3.08;;;1.80;;
24357;SDS011;13668;52.154;5.580;2023-04-28T00:32:24;2.28;;;1.75;;
24357;SDS011;13668;52.154;5.580;2023-04-28T00:34:50;3.97;;;2.03;;
24357;SDS011;13668;52.154;5.580;2023-04-28T00:37:17;3.38;;;1.95;;
24357;SDS011;13668;52.154;5.580;2023-04-28T00:39:43;2.80;;;1.88;;
24357;SDS011;13668;52.154;5.580;2023-04-28T00:42:13;3.58;;;2.08;;
24357;SDS011;13668;52.154;5.580;2023-04-28T00:44:38;2.08;;;1.77;;
24357;SDS011;13668;52.154;5.580;2023-04-28T00:47:05;3.80;;;2.08;;
24357;SDS011;13668;52.154;5.580;2023-04-28T00:49:33;3.58;;;2.10;;
24357;SDS011;13668;52.154;5.580;2023-04-28T00:52:00;2.85;;;1.90;;
24357;SDS011;13668;52.154;5.580;2023-04-28T00:54:28;5.50;;;2.33;;
24357;SDS011;13668;52.154;5.580;2023-04-28T00:56:54;3.63;;;2.00;;
24357;SDS011;13668;52.154;5.580;2023-04-28T00:59:21;3.03;;;2.08;;
24357;SDS011;13668;52.154;5.580;2023-04-28T01:01:47;2.90;;;1.88;;
24357;SDS011;13668;52.154;5.580;2023-04-28T01:04:13;3.28;;;1.60;;
24357;SDS011;13668;52.154;5.580;2023-04-28T01:06:40;2.25;;;1.98;;
24357;SDS011;13668;52.154;5.580;2023-04-28T01:09:06;2.17;;;1.98;;
24357;SDS011;13668;52.154;5.580;2023-04-28T01:11:32;3.95;;;2.03;;
24357;SDS011;13668;52.154;5.580;2023-04-28T01:13:58;3.03;;;2.28;;
24357;SDS011;13668;52.154;5.580;2023-04-28T01:16:24;3.13;;;1.90;;
24357;SDS011;13668;52.154;5.580;2023-04-28T01:18:51;3.78;;;2.17;;
24357;SDS011;13668;52.154;5.580;2023-04-28T01:21:26;2.67;;;1.90;;
24357;SDS011;13668;52.154;5.580;2023-04-28T01:24:00;2.67;;;1.70;;
24357;SDS011;13668;52.154;5.580;2023-04-28T01:26:26;1.98;;;1.65;;
24357;SDS011;13668;52.154;5.580;2023-04-28T01:28:52;3.22;;;1.83;;
24357;SDS011;13668;52.154;5.580;2023-04-28T01:31:18;2.08;;;1.88;;
24357;SDS011;13668;52.154;5.580;2023-04-28T01:33:44;4.82;;;2.03;;
24357;SDS011;13668;52.154;5.580;2023-04-28T01:36:10;5.00;;;2.65;;
24357;SDS011;13668;52.154;5.580;2023-04-28T01:38:36;1.83;;;1.70;;
24357;SDS011;13668;52.154;5.580;2023-04-28T01:41:02;2.38;;;2.17;;
24357;SDS011;13668;52.154;5.580;2023-04-28T01:43:28;2.40;;;1.65;;
24357;SDS011;13668;52.154;5.580;2023-04-28T01:45:54;2.15;;;1.92;;
24357;SDS011;13668;52.154;5.580;2023-04-28T01:48:20;3.20;;;2.00;;
24357;SDS011;13668;52.154;5.580;2023-04-28T01:50:46;2.25;;;1.70;;
24357;SDS011;13668;52.154;5.580;2023-04-28T01:53:12;2.67;;;2.30;;
24357;SDS011;13668;52.154;5.580;2023-04-28T01:55:38;2.15;;;1.58;;
24357;SDS011;13668;52.154;5.580;2023-04-28T01:58:04;3.17;;;2.20;;
24357;SDS011;13668;52.154;5.580;2023-04-28T02:00:31;3.80;;;1.70;;
24357;SDS011;13668;52.154;5.580;2023-04-28T02:02:57;2.45;;;1.77;;
24357;SDS011;13668;52.154;5.580;2023-04-28T02:05:23;1.88;;;1.67;;
24357;SDS011;13668;52.154;5.580;2023-04-28T02:07:49;3.80;;;2.00;;
24357;SDS011;13668;52.154;5.580;2023-04-28T02:10:15;3.78;;;2.25;;
24357;SDS011;13668;52.154;5.580;2023-04-28T02:12:41;3.83;;;2.25;;
24357;SDS011;13668;52.154;5.580;2023-04-28T02:15:07;3.08;;;2.38;;
24357;SDS011;13668;52.154;5.580;2023-04-28T02:17:33;4.45;;;2.10;;
24357;SDS011;13668;52.154;5.580;2023-04-28T02:19:59;2.33;;;1.80;;
24357;SDS011;13668;52.154;5.580;2023-04-28T02:22:25;2.58;;;1.95;;
24357;SDS011;13668;52.154;5.580;2023-04-28T02:24:51;3.10;;;2.00;;
24357;SDS011;13668;52.154;5.580;2023-04-28T02:27:17;2.47;;;1.92;;
24357;SDS011;13668;52.154;5.580;2023-04-28T02:29:43;2.85;;;1.98;;
24357;SDS011;13668;52.154;5.580;2023-04-28T02:32:09;2.95;;;2.17;;
24357;SDS011;13668;52.154;5.580;2023-04-28T02:34:35;1.85;;;1.70;;
24357;SDS011;13668;52.154;5.580;2023-04-28T02:37:01;1.95;;;1.83;;
24357;SDS011;13668;52.154;5.580;2023-04-28T02:39:27;2.50;;;2.08;;
24357;SDS011;13668;52.154;5.580;2023-04-28T02:41:55;2.88;;;2.08;;
24357;SDS011;13668;52.154;5.580;2023-04-28T02:44:24;3.17;;;2.10;;
24357;SDS011;13668;52.154;5.580;2023-04-28T02:46:50;2.88;;;2.53;;
24357;SDS011;13668;52.154;5.580;2023-04-28T02:49:16;3.00;;;1.63;;
24357;SDS011;13668;52.154;5.580;2023-04-28T02:51:42;2.65;;;2.40;;
24357;SDS011;13668;52.154;5.580;2023-04-28T02:54:08;2.60;;;1.95;;
24357;SDS011;13668;52.154;5.580;2023-04-28T02:56:34;4.05;;;2.33;;
24357;SDS011;13668;52.154;5.580;2023-04-28T02:59:01;3.63;;;2.17;;
24357;SDS011;13668;52.154;5.580;2023-04-28T03:01:27;3.17;;;2.05;;
24357;SDS011;13668;52.154;5.580;2023-04-28T03:03:53;2.47;;;1.55;;
24357;SDS011;13668;52.154;5.580;2023-04-28T03:06:19;3.47;;;2.20;;
24357;SDS011;13668;52.154;5.580;2023-04-28T03:08:45;3.75;;;1.92;;
24357;SDS011;13668;52.154;5.580;2023-04-28T03:11:11;4.35;;;2.47;;
24357;SDS011;13668;52.154;5.580;2023-04-28T03:13:37;3.03;;;1.98;;
24357;SDS011;13668;52.154;5.580;2023-04-28T03:16:03;3.08;;;2.17;;
24357;SDS011;13668;52.154;5.580;2023-04-28T03:18:29;3.47;;;1.90;;
24357;SDS011;13668;52.154;5.580;2023-04-28T03:20:55;3.45;;;2.33;;
24357;SDS011;13668;52.154;5.580;2023-04-28T03:23:21;3.10;;;2.15;;
24357;SDS011;13668;52.154;5.580;2023-04-28T03:25:47;5.88;;;2.17;;
24357;SDS011;13668;52.154;5.580;2023-04-28T03:28:13;2.42;;;1.85;;
24357;SDS011;13668;52.154;5.580;2023-04-28T03:30:40;4.93;;;2.10;;
24357;SDS011;13668;52.154;5.580;2023-04-28T03:33:06;3.28;;;2.30;;
24357;SDS011;13668;52.154;5.580;2023-04-28T03:35:32;2.10;;;1.63;;
24357;SDS011;13668;52.154;5.580;2023-04-28T03:37:57;2.70;;;2.50;;
24357;SDS011;13668;52.154;5.580;2023-04-28T03:40:23;4.03;;;2.08;;
24357;SDS011;13668;52.154;5.580;2023-04-28T03:42:49;3.50;;;2.42;;
24357;SDS011;13668;52.154;5.580;2023-04-28T03:45:15;2.95;;;2.10;;
24357;SDS011;13668;52.154;5.580;2023-04-28T03:47:41;3.30;;;2.05;;
24357;SDS011;13668;52.154;5.580;2023-04-28T03:50:07;3.13;;;2.40;;
24357;SDS011;13668;52.154;5.580;2023-04-28T03:52:33;2.47;;;2.28;;
24357;SDS011;13668;52.154;5.580;2023-04-28T03:54:59;2.92;;;2.28;;
24357;SDS011;13668;52.154;5.580;2023-04-28T03:57:28;3.25;;;2.80;;
24357;SDS011;13668;52.154;5.580;2023-04-28T03:59:54;2.58;;;2.05;;
24357;SDS011;13668;52.154;5.580;2023-04-28T04:02:20;2.75;;;1.85;;
24357;SDS011;13668;52.154;5.580;2023-04-28T04:04:46;2.45;;;2.25;;
24357;SDS011;13668;52.154;5.580;2023-04-28T04:07:12;2.72;;;1.73;;
24357;SDS011;13668;52.154;5.580;2023-04-28T04:09:38;2.83;;;2.00;;
24357;SDS011;13668;52.154;5.580;2023-04-28T04:12:04;3.13;;;2.50;;
24357;SDS011;13668;52.154;5.580;2023-04-28T04:14:31;5.03;;;1.90;;
24357;SDS011;13668;52.154;5.580;2023-04-28T04:16:57;2.58;;;2.13;;
24357;SDS011;13668;52.154;5.580;2023-04-28T04:19:23;2.05;;;1.88;;
24357;SDS011;13668;52.154;5.580;2023-04-28T04:21:50;2.95;;;2.13;;
24357;SDS011;13668;52.154;5.580;2023-04-28T04:24:16;2.70;;;2.05;;
24357;SDS011;13668;52.154;5.580;2023-04-28T04:26:42;3.42;;;2.03;;
24357;SDS011;13668;52.154;5.580;2023-04-28T04:29:08;3.25;;;1.83;;
24357;SDS011;13668;52.154;5.580;2023-04-28T04:31:34;2.65;;;2.10;;
24357;SDS011;13668;52.154;5.580;2023-04-28T04:34:00;3.50;;;2.05;;
24357;SDS011;13668;52.154;5.580;2023-04-28T04:36:26;3.83;;;2.28;;
24357;SDS011;13668;52.154;5.580;2023-04-28T04:38:52;2.58;;;1.80;;
24357;SDS011;13668;52.154;5.580;2023-04-28T04:41:18;2.60;;;1.95;;
24357;SDS011;13668;52.154;5.580;2023-04-28T04:43:44;4.20;;;2.40;;
24357;SDS011;13668;52.154;5.580;2023-04-28T04:46:10;2.80;;;2.00;;
24357;SDS011;13668;52.154;5.580;2023-04-28T04:48:36;3.28;;;2.15;;
24357;SDS011;13668;52.154;5.580;2023-04-28T04:51:02;4.43;;;2.63;;
24357;SDS011;13668;52.154;5.580;2023-04-28T04:53:28;4.18;;;2.35;;
24357;SDS011;13668;52.154;5.580;2023-04-28T04:55:54;7.00;;;2.15;;
24357;SDS011;13668;52.154;5.580;2023-04-28T04:58:20;4.13;;;2.30;;
24357;SDS011;13668;52.154;5.580;2023-04-28T05:00:46;3.33;;;2.40;;
24357;SDS011;13668;52.154;5.580;2023-04-28T05:03:12;4.63;;;2.63;;
24357;SDS011;13668;52.154;5.580;2023-04-28T05:05:38;3.15;;;2.30;;
24357;SDS011;13668;52.154;5.580;2023-04-28T05:08:04;3.70;;;2.00;;
24357;SDS011;13668;52.154;5.580;2023-04-28T05:10:30;2.58;;;2.28;;
24357;SDS011;13668;52.154;5.580;2023-04-28T05:12:56;3.45;;;3.05;;
24357;SDS011;13668;52.154;5.580;2023-04-28T05:15:22;2.85;;;2.03;;
24357;SDS011;13668;52.154;5.580;2023-04-28T05:17:48;3.70;;;2.83;;
24357;SDS011;13668;52.154;5.580;2023-04-28T05:20:14;6.30;;;2.83;;
24357;SDS011;13668;52.154;5.580;2023-04-28T05:22:40;4.57;;;2.55;;
24357;SDS011;13668;52.154;5.580;2023-04-28T05:25:06;3.83;;;2.35;;
24357;SDS011;13668;52.154;5.580;2023-04-28T05:27:32;10.43;;;3.20;;
24357;SDS011;13668;52.154;5.580;2023-04-28T05:30:01;3.63;;;2.67;;
24357;SDS011;13668;52.154;5.580;2023-04-28T05:32:27;3.33;;;2.10;;
24357;SDS011;13668;52.154;5.580;2023-04-28T05:34:53;4.30;;;2.40;;
24357;SDS011;13668;52.154;5.580;2023-04-28T05:37:19;4.93;;;2.88;;
24357;SDS011;13668;52.154;5.580;2023-04-28T05:39:45;5.95;;;3.28;;
24357;SDS011;13668;52.154;5.580;2023-04-28T05:42:11;3.47;;;2.95;;
24357;SDS011;13668;52.154;5.580;2023-04-28T05:44:37;4.65;;;2.85;;
24357;SDS011;13668;52.154;5.580;2023-04-28T05:47:03;5.32;;;3.05;;
24357;SDS011;13668;52.154;5.580;2023-04-28T05:49:29;6.47;;;3.08;;
24357;SDS011;13668;52.154;5.580;2023-04-28T05:51:55;4.88;;;3.20;;
24357;SDS011;13668;52.154;5.580;2023-04-28T05:54:21;5.40;;;3.25;;
24357;SDS011;13668;52.154;5.580;2023-04-28T05:56:47;3.78;;;2.83;;
24357;SDS011;13668;52.154;5.580;2023-04-28T05:59:13;5.70;;;3.63;;
24357;SDS011;13668;52.154;5.580;2023-04-28T06:01:39;9.32;;;4.03;;
24357;SDS011;13668;52.154;5.580;2023-04-28T06:04:05;4.22;;;3.20;;
24357;SDS011;13668;52.154;5.580;2023-04-28T06:06:31;5.85;;;4.05;;
24357;SDS011;13668;52.154;5.580;2023-04-28T06:08:58;5.10;;;3.75;;
24357;SDS011;13668;52.154;5.580;2023-04-28T06:11:24;5.53;;;3.70;;
24357;SDS011;13668;52.154;5.580;2023-04-28T06:13:50;5.57;;;3.38;;
24357;SDS011;13668;52.154;5.580;2023-04-28T06:16:16;3.38;;;3.08;;
24357;SDS011;13668;52.154;5.580;2023-04-28T06:18:42;5.45;;;3.90;;
24357;SDS011;13668;52.154;5.580;2023-04-28T06:21:08;5.60;;;3.78;;
24357;SDS011;13668;52.154;5.580;2023-04-28T06:23:37;6.07;;;4.05;;
24357;SDS011;13668;52.154;5.580;2023-04-28T06:26:04;6.97;;;4.10;;
24357;SDS011;13668;52.154;5.580;2023-04-28T06:28:30;5.80;;;3.80;;
24357;SDS011;13668;52.154;5.580;2023-04-28T06:30:56;7.22;;;4.13;;
24357;SDS011;13668;52.154;5.580;2023-04-28T06:33:23;7.03;;;5.03;;
24357;SDS011;13668;52.154;5.580;2023-04-28T06:35:49;7.75;;;4.25;;
24357;SDS011;13668;52.154;5.580;2023-04-28T06:38:15;9.15;;;5.07;;
24357;SDS011;13668;52.154;5.580;2023-04-28T06:40:41;9.50;;;4.72;;
24357;SDS011;13668;52.154;5.580;2023-04-28T06:43:09;9.48;;;5.38;;
24357;SDS011;13668;52.154;5.580;2023-04-28T06:45:35;6.85;;;4.90;;
24357;SDS011;13668;52.154;5.580;2023-04-28T06:48:02;7.13;;;4.47;;
24357;SDS011;13668;52.154;5.580;2023-04-28T06:50:28;8.23;;;5.10;;
24357;SDS011;13668;52.154;5.580;2023-04-28T06:52:54;9.10;;;5.70;;
24357;SDS011;13668;52.154;5.580;2023-04-28T06:55:20;5.90;;;4.47;;
24357;SDS011;13668;52.154;5.580;2023-04-28T06:57:46;8.75;;;5.50;;
24357;SDS011;13668;52.154;5.580;2023-04-28T07:00:12;9.95;;;5.88;;
24357;SDS011;13668;52.154;5.580;2023-04-28T07:02:38;11.00;;;5.38;;
24357;SDS011;13668;52.154;5.580;2023-04-28T07:05:04;11.15;;;5.13;;
24357;SDS011;13668;52.154;5.580;2023-04-28T07:07:30;8.95;;;5.57;;
24357;SDS011;13668;52.154;5.580;2023-04-28T07:09:56;6.53;;;5.32;;
24357;SDS011;13668;52.154;5.580;2023-04-28T07:12:23;7.40;;;5.47;;
24357;SDS011;13668;52.154;5.580;2023-04-28T07:14:49;10.05;;;5.47;;
24357;SDS011;13668;52.154;5.580;2023-04-28T07:17:15;10.73;;;5.55;;
24357;SDS011;13668;52.154;5.580;2023-04-28T07:19:41;7.65;;;4.88;;
24357;SDS011;13668;52.154;5.580;2023-04-28T07:22:07;8.23;;;5.00;;
24357;SDS011;13668;52.154;5.580;2023-04-28T07:24:33;7.70;;;4.38;;
24357;SDS011;13668;52.154;5.580;2023-04-28T07:26:59;9.25;;;5.05;;
24357;SDS011;13668;52.154;5.580;2023-04-28T07:29:25;6.80;;;4.80;;
24357;SDS011;13668;52.154;5.580;2023-04-28T07:31:57;9.70;;;5.07;;
24357;SDS011;13668;52.154;5.580;2023-04-28T07:34:23;7.15;;;4.65;;
24357;SDS011;13668;52.154;5.580;2023-04-28T07:36:49;9.18;;;5.57;;
24357;SDS011;13668;52.154;5.580;2023-04-28T07:39:15;9.32;;;5.95;;
24357;SDS011;13668;52.154;5.580;2023-04-28T07:41:41;7.20;;;5.13;;
24357;SDS011;13668;52.154;5.580;2023-04-28T07:44:07;8.93;;;5.40;;
24357;SDS011;13668;52.154;5.580;2023-04-28T07:46:34;9.95;;;5.78;;
24357;SDS011;13668;52.154;5.580;2023-04-28T07:49:00;6.32;;;4.78;;
24357;SDS011;13668;52.154;5.580;2023-04-28T07:51:26;7.95;;;4.93;;
24357;SDS011;13668;52.154;5.580;2023-04-28T07:53:53;9.35;;;6.13;;
24357;SDS011;13668;52.154;5.580;2023-04-28T07:56:18;11.75;;;6.35;;
24357;SDS011;13668;52.154;5.580;2023-04-28T07:58:45;7.20;;;4.95;;
24357;SDS011;13668;52.154;5.580;2023-04-28T08:01:11;8.68;;;5.63;;
24357;SDS011;13668;52.154;5.580;2023-04-28T08:03:37;8.15;;;5.65;;
24357;SDS011;13668;52.154;5.580;2023-04-28T08:06:03;9.70;;;5.55;;
24357;SDS011;13668;52.154;5.580;2023-04-28T08:08:29;7.53;;;5.95;;
24357;SDS011;13668;52.154;5.580;2023-04-28T08:10:56;9.00;;;5.95;;
24357;SDS011;13668;52.154;5.580;2023-04-28T08:13:23;7.40;;;5.68;;
24357;SDS011;13668;52.154;5.580;2023-04-28T08:15:49;9.93;;;5.63;;
24357;SDS011;13668;52.154;5.580;2023-04-28T08:18:15;7.53;;;5.60;;
24357;SDS011;13668;52.154;5.580;2023-04-28T08:20:41;9.00;;;5.43;;
24357;SDS011;13668;52.154;5.580;2023-04-28T08:23:07;9.90;;;5.72;;
24357;SDS011;13668;52.154;5.580;2023-04-28T08:25:33;10.43;;;5.55;;
24357;SDS011;13668;52.154;5.580;2023-04-28T08:27:59;9.23;;;6.15;;
24357;SDS011;13668;52.154;5.580;2023-04-28T08:30:27;10.95;;;6.57;;
24357;SDS011;13668;52.154;5.580;2023-04-28T08:32:53;9.20;;;6.55;;
24357;SDS011;13668;52.154;5.580;2023-04-28T08:35:19;8.38;;;5.90;;
24357;SDS011;13668;52.154;5.580;2023-04-28T08:37:45;8.05;;;5.25;;
24357;SDS011;13668;52.154;5.580;2023-04-28T08:40:13;8.70;;;5.68;;
24357;SDS011;13668;52.154;5.580;2023-04-28T08:42:39;8.95;;;5.55;;
24357;SDS011;13668;52.154;5.580;2023-04-28T08:45:06;9.18;;;5.65;;
24357;SDS011;13668;52.154;5.580;2023-04-28T08:47:33;8.48;;;5.75;;
24357;SDS011;13668;52.154;5.580;2023-04-28T08:50:03;11.80;;;6.45;;
24357;SDS011;13668;52.154;5.580;2023-04-28T08:52:29;8.95;;;6.13;;
24357;SDS011;13668;52.154;5.580;2023-04-28T08:54:57;8.52;;;5.70;;
24357;SDS011;13668;52.154;5.580;2023-04-28T08:57:23;6.55;;;5.50;;
24357;SDS011;13668;52.154;5.580;2023-04-28T08:59:51;11.07;;;6.40;;
24357;SDS011;13668;52.154;5.580;2023-04-28T09:02:17;10.13;;;6.47;;
24357;SDS011;13668;52.154;5.580;2023-04-28T09:04:43;10.30;;;5.85;;
24357;SDS011;13668;52.154;5.580;2023-04-28T09:07:10;10.45;;;7.15;;
24357;SDS011;13668;52.154;5.580;2023-04-28T09:09:36;11.18;;;7.22;;
24357;SDS011;13668;52.154;5.580;2023-04-28T09:12:02;8.88;;;6.55;;
24357;SDS011;13668;52.154;5.580;2023-04-28T09:14:29;11.23;;;6.53;;
24357;SDS011;13668;52.154;5.580;2023-04-28T09:16:56;10.13;;;6.75;;
24357;SDS011;13668;52.154;5.580;2023-04-28T09:19:23;8.45;;;6.43;;
24357;SDS011;13668;52.154;5.580;2023-04-28T09:21:52;10.18;;;6.53;;
24357;SDS011;13668;52.154;5.580;2023-04-28T09:26:54;10.35;;;7.20;;
24357;SDS011;13668;52.154;5.580;2023-04-28T09:29:20;10.68;;;6.63;;
24357;SDS011;13668;52.154;5.580;2023-04-28T09:31:46;12.32;;;7.53;;
24357;SDS011;13668;52.154;5.580;2023-04-28T09:34:12;10.40;;;6.97;;
24357;SDS011;13668;52.154;5.580;2023-04-28T09:36:39;11.23;;;7.65;;
24357;SDS011;13668;52.154;5.580;2023-04-28T09:39:05;12.55;;;8.18;;
24357;SDS011;13668;52.154;5.580;2023-04-28T09:41:49;14.32;;;8.20;;
24357;SDS011;13668;52.154;5.580;2023-04-28T09:44:15;11.75;;;7.65;;
24357;SDS011;13668;52.154;5.580;2023-04-28T09:46:42;13.00;;;8.65;;
24357;SDS011;13668;52.154;5.580;2023-04-28T09:49:09;13.18;;;7.75;;
24357;SDS011;13668;52.154;5.580;2023-04-28T09:51:35;11.20;;;8.00;;
24357;SDS011;13668;52.154;5.580;2023-04-28T09:54:02;13.90;;;7.45;;
24357;SDS011;13668;52.154;5.580;2023-04-28T09:56:28;11.80;;;8.45;;
24357;SDS011;13668;52.154;5.580;2023-04-28T09:58:58;10.77;;;8.10;;
24357;SDS011;13668;52.154;5.580;2023-04-28T10:01:36;12.63;;;8.68;;
24357;SDS011;13668;52.154;5.580;2023-04-28T10:04:03;11.88;;;7.95;;
24357;SDS011;13668;52.154;5.580;2023-04-28T10:06:30;12.73;;;8.40;;
24357;SDS011;13668;52.154;5.580;2023-04-28T10:08:58;13.32;;;8.18;;
24357;SDS011;13668;52.154;5.580;2023-04-28T10:11:25;14.77;;;9.40;;
24357;SDS011;13668;52.154;5.580;2023-04-28T10:13:52;12.98;;;8.55;;
24357;SDS011;13668;52.154;5.580;2023-04-28T10:16:19;11.73;;;8.32;;
24357;SDS011;13668;52.154;5.580;2023-04-28T10:18:45;15.45;;;9.35;;
24357;SDS011;13668;52.154;5.580;2023-04-28T10:21:11;11.90;;;8.80;;
24357;SDS011;13668;52.154;5.580;2023-04-28T10:23:45;14.18;;;9.10;;
24357;SDS011;13668;52.154;5.580;2023-04-28T10:26:12;11.23;;;8.63;;
24357;SDS011;13668;52.154;5.580;2023-04-28T10:28:45;12.48;;;8.63;;
24357;SDS011;13668;52.154;5.580;2023-04-28T10:31:13;13.55;;;8.65;;
24357;SDS011;13668;52.154;5.580;2023-04-28T10:33:40;11.85;;;8.95;;
24357;SDS011;13668;52.154;5.580;2023-04-28T10:36:07;10.98;;;8.18;;
24357;SDS011;13668;52.154;5.580;2023-04-28T10:38:33;13.23;;;8.88;;
24357;SDS011;13668;52.154;5.580;2023-04-28T10:41:00;15.73;;;9.57;;
24357;SDS011;13668;52.154;5.580;2023-04-28T10:54:14;14.30;;;9.27;;
24357;SDS011;13668;52.154;5.580;2023-04-28T10:56:18;12.52;;;9.32;;
24357;SDS011;13668;52.154;5.580;2023-04-28T10:58:45;12.52;;;8.48;;
24357;SDS011;13668;52.154;5.580;2023-04-28T11:03:51;11.98;;;8.82;;
24357;SDS011;13668;52.154;5.580;2023-04-28T11:06:28;13.18;;;7.88;;
24357;SDS011;13668;52.154;5.580;2023-04-28T11:08:57;10.70;;;7.40;;
24357;SDS011;13668;52.154;5.580;2023-04-28T11:11:25;9.25;;;6.80;;
24357;SDS011;13668;52.154;5.580;2023-04-28T11:13:52;7.90;;;6.72;;
24357;SDS011;13668;52.154;5.580;2023-04-28T11:16:22;9.68;;;6.78;;
24357;SDS011;13668;52.154;5.580;2023-04-28T11:18:56;7.82;;;5.47;;
24357;SDS011;13668;52.154;5.580;2023-04-28T11:21:24;6.90;;;5.03;;
24357;SDS011;13668;52.154;5.580;2023-04-28T11:23:52;7.15;;;4.53;;
24357;SDS011;13668;52.154;5.580;2023-04-28T11:26:18;8.30;;;5.50;;
24357;SDS011;13668;52.154;5.580;2023-04-28T11:28:54;8.38;;;5.18;;
24357;SDS011;13668;52.154;5.580;2023-04-28T11:31:21;8.30;;;5.30;;
24357;SDS011;13668;52.154;5.580;2023-04-28T11:34:03;7.15;;;5.18;;
24357;SDS011;13668;52.154;5.580;2023-04-28T11:36:34;7.15;;;5.55;;
24357;SDS011;13668;52.154;5.580;2023-04-28T11:39:01;7.50;;;5.00;;
24357;SDS011;13668;52.154;5.580;2023-04-28T11:41:29;6.43;;;4.50;;
24357;SDS011;13668;52.154;5.580;2023-04-28T11:43:55;6.68;;;4.80;;
24357;SDS011;13668;52.154;5.580;2023-04-28T11:46:22;8.68;;;5.53;;
24357;SDS011;13668;52.154;5.580;2023-04-28T11:48:58;6.72;;;4.53;;
24357;SDS011;13668;52.154;5.580;2023-04-28T11:51:31;7.50;;;5.03;;
24357;SDS011;13668;52.154;5.580;2023-04-28T11:53:58;7.95;;;5.47;;
24357;SDS011;13668;52.154;5.580;2023-04-28T11:56:25;7.22;;;4.97;;
24357;SDS011;13668;52.154;5.580;2023-04-28T11:59:00;8.57;;;5.40;;
24357;SDS011;13668;52.154;5.580;2023-04-28T12:01:29;8.85;;;5.72;;
24357;SDS011;13668;52.154;5.580;2023-04-28T12:03:55;7.38;;;5.10;;
24357;SDS011;13668;52.154;5.580;2023-04-28T12:06:21;6.80;;;4.75;;
24357;SDS011;13668;52.154;5.580;2023-04-28T12:08:47;8.15;;;4.68;;
24357;SDS011;13668;52.154;5.580;2023-04-28T12:11:14;5.80;;;4.22;;
24357;SDS011;13668;52.154;5.580;2023-04-28T12:13:42;10.50;;;4.72;;
24357;SDS011;13668;52.154;5.580;2023-04-28T12:16:08;5.70;;;3.75;;
24357;SDS011;13668;52.154;5.580;2023-04-28T12:18:34;7.82;;;4.30;;
24357;SDS011;13668;52.154;5.580;2023-04-28T12:21:01;7.82;;;3.95;;
24357;SDS011;13668;52.154;5.580;2023-04-28T12:23:34;5.65;;;3.80;;
24357;SDS011;13668;52.154;5.580;2023-04-28T12:26:00;6.13;;;3.45;;
24357;SDS011;13668;52.154;5.580;2023-04-28T12:28:36;8.40;;;4.40;;
24357;SDS011;13668;52.154;5.580;2023-04-28T12:31:03;7.82;;;4.00;;
24357;SDS011;13668;52.154;5.580;2023-04-28T12:33:29;7.15;;;3.72;;
24357;SDS011;13668;52.154;5.580;2023-04-28T12:35:57;6.97;;;3.55;;
24357;SDS011;13668;52.154;5.580;2023-04-28T12:38:24;7.70;;;3.22;;
24357;SDS011;13668;52.154;5.580;2023-04-28T12:40:51;6.82;;;4.07;;
24357;SDS011;13668;52.154;5.580;2023-04-28T12:43:17;5.07;;;3.30;;
24357;SDS011;13668;52.154;5.580;2023-04-28T12:45:45;4.93;;;3.22;;
24357;SDS011;13668;52.154;5.580;2023-04-28T12:48:11;7.50;;;3.45;;
24357;SDS011;13668;52.154;5.580;2023-04-28T12:50:36;5.97;;;3.50;;
24357;SDS011;13668;52.154;5.580;2023-04-28T12:53:02;4.45;;;2.97;;
24357;SDS011;13668;52.154;5.580;2023-04-28T12:55:29;4.07;;;2.30;;
24357;SDS011;13668;52.154;5.580;2023-04-28T12:57:55;4.45;;;2.63;;
24357;SDS011;13668;52.154;5.580;2023-04-28T13:00:21;4.53;;;2.00;;
24357;SDS011;13668;52.154;5.580;2023-04-28T13:02:49;3.72;;;2.55;;
24357;SDS011;13668;52.154;5.580;2023-04-28T13:05:15;2.88;;;2.50;;
24357;SDS011;13668;52.154;5.580;2023-04-28T13:07:41;4.30;;;2.40;;
24357;SDS011;13668;52.154;5.580;2023-04-28T13:10:07;3.08;;;1.92;;
24357;SDS011;13668;52.154;5.580;2023-04-28T13:12:33;4.18;;;2.30;;
24357;SDS011;13668;52.154;5.580;2023-04-28T13:15:00;3.47;;;2.03;;
24357;SDS011;13668;52.154;5.580;2023-04-28T13:17:26;2.38;;;1.92;;
24357;SDS011;13668;52.154;5.580;2023-04-28T13:19:52;2.25;;;1.40;;
24357;SDS011;13668;52.154;5.580;2023-04-28T13:22:18;1.52;;;1.20;;
24357;SDS011;13668;52.154;5.580;2023-04-28T13:24:45;1.40;;;1.30;;
24357;SDS011;13668;52.154;5.580;2023-04-28T13:27:11;1.83;;;1.30;;
24357;SDS011;13668;52.154;5.580;2023-04-28T13:29:38;1.85;;;1.10;;
24357;SDS011;13668;52.154;5.580;2023-04-28T13:32:04;3.60;;;1.75;;
24357;SDS011;13668;52.154;5.580;2023-04-28T13:34:30;1.27;;;1.17;;
24357;SDS011;13668;52.154;5.580;2023-04-28T13:36:56;1.40;;;1.30;;
24357;SDS011;13668;52.154;5.580;2023-04-28T13:39:25;2.38;;;2.17;;
24357;SDS011;13668;52.154;5.580;2023-04-28T13:41:51;2.05;;;1.52;;
24357;SDS011;13668;52.154;5.580;2023-04-28T13:44:17;1.67;;;1.58;;
24357;SDS011;13668;52.154;5.580;2023-04-28T13:46:43;2.10;;;2.00;;
24357;SDS011;13668;52.154;5.580;2023-04-28T13:49:09;2.08;;;1.88;;
24357;SDS011;13668;52.154;5.580;2023-04-28T13:51:35;2.13;;;1.92;;
24357;SDS011;13668;52.154;5.580;2023-04-28T13:54:01;2.78;;;2.10;;
24357;SDS011;13668;52.154;5.580;2023-04-28T13:56:31;2.42;;;1.92;;
24357;SDS011;13668;52.154;5.580;2023-04-28T13:58:57;2.53;;;2.20;;
24357;SDS011;13668;52.154;5.580;2023-04-28T14:01:23;2.50;;;2.25;;
24357;SDS011;13668;52.154;5.580;2023-04-28T14:03:49;2.53;;;2.33;;
24357;SDS011;13668;52.154;5.580;2023-04-28T14:06:15;2.90;;;2.65;;
24357;SDS011;13668;52.154;5.580;2023-04-28T14:08:41;2.75;;;2.55;;
24357;SDS011;13668;52.154;5.580;2023-04-28T14:11:07;3.13;;;2.83;;
24357;SDS011;13668;52.154;5.580;2023-04-28T14:13:33;3.88;;;3.10;;
24357;SDS011;13668;52.154;5.580;2023-04-28T14:15:59;2.95;;;2.65;;
24357;SDS011;13668;52.154;5.580;2023-04-28T14:18:26;3.13;;;2.75;;
24357;SDS011;13668;52.154;5.580;2023-04-28T14:20:55;3.00;;;2.50;;
24357;SDS011;13668;52.154;5.580;2023-04-28T14:23:22;2.33;;;2.13;;
24357;SDS011;13668;52.154;5.580;2023-04-28T14:25:48;2.33;;;2.13;;
24357;SDS011;13668;52.154;5.580;2023-04-28T14:28:15;2.17;;;1.98;;
24357;SDS011;13668;52.154;5.580;2023-04-28T14:30:41;2.47;;;2.08;;
24357;SDS011;13668;52.154;5.580;2023-04-28T14:33:07;2.15;;;1.95;;
24357;SDS011;13668;52.154;5.580;2023-04-28T14:35:33;1.70;;;1.60;;
24357;SDS011;13668;52.154;5.580;2023-04-28T14:37:59;2.05;;;1.85;;
24357;SDS011;13668;52.154;5.580;2023-04-28T14:40:25;1.50;;;1.40;;
24357;SDS011;13668;52.154;5.580;2023-04-28T14:42:51;1.98;;;1.52;;
24357;SDS011;13668;52.154;5.580;2023-04-28T14:45:17;1.60;;;1.50;;
24357;SDS011;13668;52.154;5.580;2023-04-28T14:47:44;1.65;;;1.48;;
24357;SDS011;13668;52.154;5.580;2023-04-28T14:50:10;1.90;;;1.65;;
24357;SDS011;13668;52.154;5.580;2023-04-28T14:52:36;1.50;;;1.40;;
24357;SDS011;13668;52.154;5.580;2023-04-28T14:55:02;1.50;;;1.40;;
24357;SDS011;13668;52.154;5.580;2023-04-28T14:57:29;2.05;;;1.75;;